sensor_id;sensor_type;location;lat;lon;timestamp;P1;durP1;ratioP1;P2;durP2;ratioP2
20154;SDS011;10238;49.556;10.956;2023-03-05T00:00:05;30.17;;;13.02;;
20154;SDS011;10238;49.556;10.956;2023-03-05T00:02:53;32.30;;;13.68;;
20154;SDS011;10238;49.556;10.956;2023-03-05T00:05:41;28.90;;;12.73;;
20154;SDS011;10238;49.556;10.956;2023-03-05T00:08:31;30.23;;;13.70;;
20154;SDS011;10238;49.556;10.956;2023-03-05T00:11:20;33.75;;;14.38;;
20154;SDS011;10238;49.556;10.956;2023-03-05T00:14:09;31.40;;;14.15;;
20154;SDS011;10238;49.556;10.956;2023-03-05T00:16:57;29.75;;;13.57;;
20154;SDS011;10238;49.556;10.956;2023-03-05T00:19:45;28.52;;;12.63;;
20154;SDS011;10238;49.556;10.956;2023-03-05T00:22:33;33.53;;;14.73;;
20154;SDS011;10238;49.556;10.956;2023-03-05T00:25:22;31.27;;;13.52;;
20154;SDS011;10238;49.556;10.956;2023-03-05T00:28:10;29.48;;;13.30;;
20154;SDS011;10238;49.556;10.956;2023-03-05T00:30:58;28.58;;;13.93;;
20154;SDS011;10238;49.556;10.956;2023-03-05T00:33:50;30.75;;;13.27;;
20154;SDS011;10238;49.556;10.956;2023-03-05T00:36:39;29.13;;;14.48;;
20154;SDS011;10238;49.556;10.956;2023-03-05T00:39:27;29.95;;;13.77;;
20154;SDS011;10238;49.556;10.956;2023-03-05T00:42:17;36.45;;;15.13;;
20154;SDS011;10238;49.556;10.956;2023-03-05T00:45:06;31.77;;;13.88;;
20154;SDS011;10238;49.556;10.956;2023-03-05T00:47:55;30.40;;;14.10;;
20154;SDS011;10238;49.556;10.956;2023-03-05T00:50:43;34.58;;;14.52;;
20154;SDS011;10238;49.556;10.956;2023-03-05T00:53:31;32.72;;;14.57;;
20154;SDS011;10238;49.556;10.956;2023-03-05T00:56:19;38.83;;;15.27;;
20154;SDS011;10238;49.556;10.956;2023-03-05T00:59:09;40.95;;;16.27;;
20154;SDS011;10238;49.556;10.956;2023-03-05T01:01:57;34.05;;;15.20;;
20154;SDS011;10238;49.556;10.956;2023-03-05T01:04:45;29.75;;;13.82;;
20154;SDS011;10238;49.556;10.956;2023-03-05T01:07:33;35.67;;;14.95;;
20154;SDS011;10238;49.556;10.956;2023-03-05T01:10:22;34.83;;;14.90;;
20154;SDS011;10238;49.556;10.956;2023-03-05T01:13:12;34.45;;;15.10;;
20154;SDS011;10238;49.556;10.956;2023-03-05T01:16:01;34.83;;;15.18;;
20154;SDS011;10238;49.556;10.956;2023-03-05T01:18:50;34.30;;;14.88;;
20154;SDS011;10238;49.556;10.956;2023-03-05T01:21:38;32.72;;;15.98;;
20154;SDS011;10238;49.556;10.956;2023-03-05T01:24:26;34.67;;;15.32;;
20154;SDS011;10238;49.556;10.956;2023-03-05T01:27:14;32.33;;;14.50;;
20154;SDS011;10238;49.556;10.956;2023-03-05T01:30:02;33.28;;;15.35;;
20154;SDS011;10238;49.556;10.956;2023-03-05T01:32:53;36.58;;;15.75;;
20154;SDS011;10238;49.556;10.956;2023-03-05T01:35:41;34.45;;;14.75;;
20154;SDS011;10238;49.556;10.956;2023-03-05T01:38:31;34.45;;;15.98;;
20154;SDS011;10238;49.556;10.956;2023-03-05T01:41:19;34.80;;;15.85;;
20154;SDS011;10238;49.556;10.956;2023-03-05T01:44:13;38.88;;;15.05;;
20154;SDS011;10238;49.556;10.956;2023-03-05T01:47:06;38.28;;;16.83;;
20154;SDS011;10238;49.556;10.956;2023-03-05T01:49:55;38.20;;;15.80;;
20154;SDS011;10238;49.556;10.956;2023-03-05T01:52:44;35.55;;;15.00;;
20154;SDS011;10238;49.556;10.956;2023-03-05T01:55:35;34.83;;;15.45;;
20154;SDS011;10238;49.556;10.956;2023-03-05T01:58:24;33.47;;;15.63;;
20154;SDS011;10238;49.556;10.956;2023-03-05T02:01:11;35.13;;;15.35;;
20154;SDS011;10238;49.556;10.956;2023-03-05T02:04:01;39.15;;;15.93;;
20154;SDS011;10238;49.556;10.956;2023-03-05T02:06:51;31.70;;;15.48;;
20154;SDS011;10238;49.556;10.956;2023-03-05T02:09:39;33.40;;;16.05;;
20154;SDS011;10238;49.556;10.956;2023-03-05T02:12:27;35.47;;;15.40;;
20154;SDS011;10238;49.556;10.956;2023-03-05T02:15:15;30.58;;;15.35;;
20154;SDS011;10238;49.556;10.956;2023-03-05T02:18:03;36.60;;;15.10;;
20154;SDS011;10238;49.556;10.956;2023-03-05T02:20:57;31.75;;;14.70;;
20154;SDS011;10238;49.556;10.956;2023-03-05T02:23:46;35.08;;;15.50;;
20154;SDS011;10238;49.556;10.956;2023-03-05T02:26:34;33.28;;;14.75;;
20154;SDS011;10238;49.556;10.956;2023-03-05T02:29:22;35.78;;;15.38;;
20154;SDS011;10238;49.556;10.956;2023-03-05T02:32:13;31.75;;;14.07;;
20154;SDS011;10238;49.556;10.956;2023-03-05T02:35:01;31.35;;;13.93;;
20154;SDS011;10238;49.556;10.956;2023-03-05T02:37:50;33.03;;;14.63;;
20154;SDS011;10238;49.556;10.956;2023-03-05T02:40:38;32.17;;;14.10;;
20154;SDS011;10238;49.556;10.956;2023-03-05T02:43:27;34.40;;;15.30;;
20154;SDS011;10238;49.556;10.956;2023-03-05T02:46:15;37.25;;;14.65;;
20154;SDS011;10238;49.556;10.956;2023-03-05T02:49:02;31.10;;;14.75;;
20154;SDS011;10238;49.556;10.956;2023-03-05T02:51:50;31.63;;;13.00;;
20154;SDS011;10238;49.556;10.956;2023-03-05T02:54:40;32.05;;;14.20;;
20154;SDS011;10238;49.556;10.956;2023-03-05T02:57:27;37.72;;;14.52;;
20154;SDS011;10238;49.556;10.956;2023-03-05T03:00:16;34.85;;;14.35;;
20154;SDS011;10238;49.556;10.956;2023-03-05T03:03:04;33.47;;;14.73;;
20154;SDS011;10238;49.556;10.956;2023-03-05T03:05:52;30.35;;;13.50;;
20154;SDS011;10238;49.556;10.956;2023-03-05T03:08:40;36.22;;;14.60;;
20154;SDS011;10238;49.556;10.956;2023-03-05T03:11:29;31.27;;;13.13;;
20154;SDS011;10238;49.556;10.956;2023-03-05T03:14:17;29.70;;;13.85;;
20154;SDS011;10238;49.556;10.956;2023-03-05T03:17:05;29.10;;;12.95;;
20154;SDS011;10238;49.556;10.956;2023-03-05T03:19:53;29.65;;;13.43;;
20154;SDS011;10238;49.556;10.956;2023-03-05T03:22:41;30.67;;;13.80;;
20154;SDS011;10238;49.556;10.956;2023-03-05T03:25:30;29.90;;;13.05;;
20154;SDS011;10238;49.556;10.956;2023-03-05T03:28:19;37.50;;;14.20;;
20154;SDS011;10238;49.556;10.956;2023-03-05T03:31:07;31.58;;;13.80;;
20154;SDS011;10238;49.556;10.956;2023-03-05T03:33:55;28.90;;;12.27;;
20154;SDS011;10238;49.556;10.956;2023-03-05T03:36:44;25.67;;;12.30;;
20154;SDS011;10238;49.556;10.956;2023-03-05T03:39:32;32.33;;;12.07;;
20154;SDS011;10238;49.556;10.956;2023-03-05T03:42:21;24.88;;;11.82;;
20154;SDS011;10238;49.556;10.956;2023-03-05T03:45:11;24.95;;;11.93;;
20154;SDS011;10238;49.556;10.956;2023-03-05T03:48:00;30.60;;;11.68;;
20154;SDS011;10238;49.556;10.956;2023-03-05T03:50:48;28.08;;;11.57;;
20154;SDS011;10238;49.556;10.956;2023-03-05T03:53:36;26.75;;;11.43;;
20154;SDS011;10238;49.556;10.956;2023-03-05T03:56:24;21.60;;;10.73;;
20154;SDS011;10238;49.556;10.956;2023-03-05T03:59:12;25.35;;;11.15;;
20154;SDS011;10238;49.556;10.956;2023-03-05T04:02:01;24.02;;;10.90;;
20154;SDS011;10238;49.556;10.956;2023-03-05T04:04:49;22.05;;;11.77;;
20154;SDS011;10238;49.556;10.956;2023-03-05T04:07:37;20.80;;;10.73;;
20154;SDS011;10238;49.556;10.956;2023-03-05T04:10:25;24.98;;;10.93;;
20154;SDS011;10238;49.556;10.956;2023-03-05T04:13:13;20.63;;;11.27;;
20154;SDS011;10238;49.556;10.956;2023-03-05T04:16:01;23.45;;;11.30;;
20154;SDS011;10238;49.556;10.956;2023-03-05T04:18:50;23.40;;;10.63;;
20154;SDS011;10238;49.556;10.956;2023-03-05T04:21:38;20.70;;;11.05;;
20154;SDS011;10238;49.556;10.956;2023-03-05T04:24:26;24.15;;;10.20;;
20154;SDS011;10238;49.556;10.956;2023-03-05T04:27:13;28.17;;;11.90;;
20154;SDS011;10238;49.556;10.956;2023-03-05T04:30:01;26.67;;;12.02;;
20154;SDS011;10238;49.556;10.956;2023-03-05T04:32:50;22.52;;;10.70;;
20154;SDS011;10238;49.556;10.956;2023-03-05T04:35:39;28.55;;;12.20;;
20154;SDS011;10238;49.556;10.956;2023-03-05T04:38:27;29.10;;;12.15;;
20154;SDS011;10238;49.556;10.956;2023-03-05T04:41:15;27.05;;;11.95;;
20154;SDS011;10238;49.556;10.956;2023-03-05T04:44:03;25.52;;;11.60;;
20154;SDS011;10238;49.556;10.956;2023-03-05T04:46:51;26.05;;;11.93;;
20154;SDS011;10238;49.556;10.956;2023-03-05T04:49:39;31.83;;;13.18;;
20154;SDS011;10238;49.556;10.956;2023-03-05T04:52:28;29.55;;;13.43;;
20154;SDS011;10238;49.556;10.956;2023-03-05T04:55:17;27.27;;;12.05;;
20154;SDS011;10238;49.556;10.956;2023-03-05T04:58:05;29.17;;;13.15;;
20154;SDS011;10238;49.556;10.956;2023-03-05T05:00:52;29.48;;;12.40;;
20154;SDS011;10238;49.556;10.956;2023-03-05T05:03:40;32.05;;;13.32;;
20154;SDS011;10238;49.556;10.956;2023-03-05T05:06:28;30.00;;;13.45;;
20154;SDS011;10238;49.556;10.956;2023-03-05T05:09:18;32.65;;;14.40;;
20154;SDS011;10238;49.556;10.956;2023-03-05T05:12:06;31.58;;;12.85;;
20154;SDS011;10238;49.556;10.956;2023-03-05T05:14:55;31.05;;;13.52;;
20154;SDS011;10238;49.556;10.956;2023-03-05T05:17:43;28.80;;;12.75;;
20154;SDS011;10238;49.556;10.956;2023-03-05T05:20:31;34.17;;;14.15;;
20154;SDS011;10238;49.556;10.956;2023-03-05T05:23:19;32.92;;;13.80;;
20154;SDS011;10238;49.556;10.956;2023-03-05T05:26:08;33.03;;;13.23;;
20154;SDS011;10238;49.556;10.956;2023-03-05T05:28:58;29.85;;;12.48;;
20154;SDS011;10238;49.556;10.956;2023-03-05T05:31:46;27.95;;;12.95;;
20154;SDS011;10238;49.556;10.956;2023-03-05T05:34:34;31.77;;;12.27;;
20154;SDS011;10238;49.556;10.956;2023-03-05T05:37:22;33.78;;;13.05;;
20154;SDS011;10238;49.556;10.956;2023-03-05T05:40:11;26.90;;;13.85;;
20154;SDS011;10238;49.556;10.956;2023-03-05T05:43:00;29.50;;;13.00;;
20154;SDS011;10238;49.556;10.956;2023-03-05T05:45:48;28.40;;;13.35;;
20154;SDS011;10238;49.556;10.956;2023-03-05T05:48:36;28.25;;;13.38;;
20154;SDS011;10238;49.556;10.956;2023-03-05T05:51:24;26.77;;;12.85;;
20154;SDS011;10238;49.556;10.956;2023-03-05T05:54:12;38.80;;;14.52;;
20154;SDS011;10238;49.556;10.956;2023-03-05T05:57:00;31.17;;;13.38;;
20154;SDS011;10238;49.556;10.956;2023-03-05T05:59:50;27.73;;;13.20;;
20154;SDS011;10238;49.556;10.956;2023-03-05T06:02:38;32.42;;;14.57;;
20154;SDS011;10238;49.556;10.956;2023-03-05T06:05:26;30.42;;;15.18;;
20154;SDS011;10238;49.556;10.956;2023-03-05T06:08:14;30.80;;;12.98;;
20154;SDS011;10238;49.556;10.956;2023-03-05T06:11:02;30.67;;;13.90;;
20154;SDS011;10238;49.556;10.956;2023-03-05T06:13:50;32.20;;;14.65;;
20154;SDS011;10238;49.556;10.956;2023-03-05T06:16:40;31.90;;;13.70;;
20154;SDS011;10238;49.556;10.956;2023-03-05T06:19:28;30.67;;;14.15;;
20154;SDS011;10238;49.556;10.956;2023-03-05T06:22:16;33.53;;;14.07;;
20154;SDS011;10238;49.556;10.956;2023-03-05T06:25:04;29.30;;;14.57;;
20154;SDS011;10238;49.556;10.956;2023-03-05T06:27:53;36.10;;;14.23;;
20154;SDS011;10238;49.556;10.956;2023-03-05T06:30:42;34.53;;;14.23;;
20154;SDS011;10238;49.556;10.956;2023-03-05T06:33:31;35.70;;;14.10;;
20154;SDS011;10238;49.556;10.956;2023-03-05T06:36:20;32.47;;;14.00;;
20154;SDS011;10238;49.556;10.956;2023-03-05T06:39:09;35.17;;;14.52;;
20154;SDS011;10238;49.556;10.956;2023-03-05T06:41:57;28.75;;;14.02;;
20154;SDS011;10238;49.556;10.956;2023-03-05T06:44:45;30.27;;;13.38;;
20154;SDS011;10238;49.556;10.956;2023-03-05T06:47:33;30.40;;;13.82;;
20154;SDS011;10238;49.556;10.956;2023-03-05T06:50:22;31.98;;;14.50;;
20154;SDS011;10238;49.556;10.956;2023-03-05T06:53:10;32.28;;;13.25;;
20154;SDS011;10238;49.556;10.956;2023-03-05T06:55:59;33.40;;;14.38;;
20154;SDS011;10238;49.556;10.956;2023-03-05T06:58:48;35.83;;;14.63;;
20154;SDS011;10238;49.556;10.956;2023-03-05T07:01:36;37.17;;;16.30;;
20154;SDS011;10238;49.556;10.956;2023-03-05T07:04:24;36.10;;;14.38;;
20154;SDS011;10238;49.556;10.956;2023-03-05T07:07:14;42.55;;;17.17;;
20154;SDS011;10238;49.556;10.956;2023-03-05T07:10:01;35.55;;;15.20;;
20154;SDS011;10238;49.556;10.956;2023-03-05T07:12:51;36.67;;;14.82;;
20154;SDS011;10238;49.556;10.956;2023-03-05T07:15:42;37.33;;;15.90;;
20154;SDS011;10238;49.556;10.956;2023-03-05T07:18:30;31.95;;;13.15;;
20154;SDS011;10238;49.556;10.956;2023-03-05T07:21:18;37.88;;;15.77;;
20154;SDS011;10238;49.556;10.956;2023-03-05T07:24:10;37.28;;;14.93;;
20154;SDS011;10238;49.556;10.956;2023-03-05T07:26:59;31.13;;;13.68;;
20154;SDS011;10238;49.556;10.956;2023-03-05T07:29:46;38.42;;;14.57;;
20154;SDS011;10238;49.556;10.956;2023-03-05T07:32:34;36.90;;;15.45;;
20154;SDS011;10238;49.556;10.956;2023-03-05T07:35:22;33.40;;;14.70;;
20154;SDS011;10238;49.556;10.956;2023-03-05T07:38:11;34.45;;;14.30;;
20154;SDS011;10238;49.556;10.956;2023-03-05T07:41:02;32.58;;;14.90;;
20154;SDS011;10238;49.556;10.956;2023-03-05T07:43:54;32.60;;;13.80;;
20154;SDS011;10238;49.556;10.956;2023-03-05T07:46:42;30.73;;;14.45;;
20154;SDS011;10238;49.556;10.956;2023-03-05T07:49:30;35.65;;;14.00;;
20154;SDS011;10238;49.556;10.956;2023-03-05T07:52:18;33.80;;;14.38;;
20154;SDS011;10238;49.556;10.956;2023-03-05T07:55:06;34.33;;;14.27;;
20154;SDS011;10238;49.556;10.956;2023-03-05T07:57:56;30.90;;;13.27;;
20154;SDS011;10238;49.556;10.956;2023-03-05T08:00:44;31.40;;;13.75;;
20154;SDS011;10238;49.556;10.956;2023-03-05T08:03:32;36.58;;;13.07;;
20154;SDS011;10238;49.556;10.956;2023-03-05T08:06:20;35.22;;;13.65;;
20154;SDS011;10238;49.556;10.956;2023-03-05T08:09:08;32.47;;;13.48;;
20154;SDS011;10238;49.556;10.956;2023-03-05T08:11:56;29.33;;;13.00;;
20154;SDS011;10238;49.556;10.956;2023-03-05T08:14:45;28.77;;;12.38;;
20154;SDS011;10238;49.556;10.956;2023-03-05T08:17:33;27.77;;;11.60;;
20154;SDS011;10238;49.556;10.956;2023-03-05T08:20:22;31.02;;;13.02;;
20154;SDS011;10238;49.556;10.956;2023-03-05T08:23:10;29.60;;;10.73;;
20154;SDS011;10238;49.556;10.956;2023-03-05T08:25:58;22.33;;;10.60;;
20154;SDS011;10238;49.556;10.956;2023-03-05T08:28:46;25.80;;;10.13;;
20154;SDS011;10238;49.556;10.956;2023-03-05T08:31:36;22.33;;;8.73;;
20154;SDS011;10238;49.556;10.956;2023-03-05T08:34:24;17.33;;;7.88;;
20154;SDS011;10238;49.556;10.956;2023-03-05T08:37:12;15.65;;;8.15;;
20154;SDS011;10238;49.556;10.956;2023-03-05T08:40:00;21.25;;;8.25;;
20154;SDS011;10238;49.556;10.956;2023-03-05T08:42:49;14.45;;;7.80;;
20154;SDS011;10238;49.556;10.956;2023-03-05T08:45:37;22.20;;;8.68;;
20154;SDS011;10238;49.556;10.956;2023-03-05T08:48:27;18.30;;;8.02;;
20154;SDS011;10238;49.556;10.956;2023-03-05T08:51:17;14.95;;;7.80;;
20154;SDS011;10238;49.556;10.956;2023-03-05T08:54:08;13.63;;;6.93;;
20154;SDS011;10238;49.556;10.956;2023-03-05T08:56:56;15.85;;;7.38;;
20154;SDS011;10238;49.556;10.956;2023-03-05T08:59:44;13.65;;;7.25;;
20154;SDS011;10238;49.556;10.956;2023-03-05T09:02:32;13.07;;;6.55;;
20154;SDS011;10238;49.556;10.956;2023-03-05T09:05:21;16.25;;;6.63;;
20154;SDS011;10238;49.556;10.956;2023-03-05T09:08:09;13.48;;;6.53;;
20154;SDS011;10238;49.556;10.956;2023-03-05T09:10:57;13.90;;;6.03;;
20154;SDS011;10238;49.556;10.956;2023-03-05T09:13:47;13.07;;;5.90;;
20154;SDS011;10238;49.556;10.956;2023-03-05T09:16:35;11.98;;;5.43;;
20154;SDS011;10238;49.556;10.956;2023-03-05T09:19:25;10.60;;;5.57;;
20154;SDS011;10238;49.556;10.956;2023-03-05T09:22:14;11.38;;;5.35;;
20154;SDS011;10238;49.556;10.956;2023-03-05T09:25:02;10.50;;;4.70;;
20154;SDS011;10238;49.556;10.956;2023-03-05T09:27:50;8.65;;;4.40;;
20154;SDS011;10238;49.556;10.956;2023-03-05T09:30:38;7.72;;;4.43;;
20154;SDS011;10238;49.556;10.956;2023-03-05T09:33:28;9.90;;;4.05;;
20154;SDS011;10238;49.556;10.956;2023-03-05T09:36:17;9.82;;;3.60;;
20154;SDS011;10238;49.556;10.956;2023-03-05T09:39:08;5.57;;;3.80;;
20154;SDS011;10238;49.556;10.956;2023-03-05T09:42:13;6.38;;;3.60;;
20154;SDS011;10238;49.556;10.956;2023-03-05T09:45:16;6.10;;;3.10;;
20154;SDS011;10238;49.556;10.956;2023-03-05T09:48:12;6.97;;;3.38;;
20154;SDS011;10238;49.556;10.956;2023-03-05T09:51:04;6.55;;;2.60;;
20154;SDS011;10238;49.556;10.956;2023-03-05T09:54:02;3.83;;;2.97;;
20154;SDS011;10238;49.556;10.956;2023-03-05T09:56:57;5.38;;;3.00;;
20154;SDS011;10238;49.556;10.956;2023-03-05T09:59:49;7.22;;;2.58;;
20154;SDS011;10238;49.556;10.956;2023-03-05T10:02:41;6.80;;;2.58;;
20154;SDS011;10238;49.556;10.956;2023-03-05T10:05:46;3.55;;;2.70;;
20154;SDS011;10238;49.556;10.956;2023-03-05T10:08:46;4.57;;;2.45;;
20154;SDS011;10238;49.556;10.956;2023-03-05T10:11:39;2.58;;;2.30;;
20154;SDS011;10238;49.556;10.956;2023-03-05T10:14:33;5.60;;;2.53;;
20154;SDS011;10238;49.556;10.956;2023-03-05T10:23:39;4.25;;;2.97;;
20154;SDS011;10238;49.556;10.956;2023-03-05T10:26:53;6.85;;;3.22;;
20154;SDS011;10238;49.556;10.956;2023-03-05T10:29:50;4.60;;;2.65;;
20154;SDS011;10238;49.556;10.956;2023-03-05T10:32:49;6.88;;;3.63;;
20154;SDS011;10238;49.556;10.956;2023-03-05T10:35:47;8.52;;;3.55;;
20154;SDS011;10238;49.556;10.956;2023-03-05T10:39:04;7.65;;;3.95;;
20154;SDS011;10238;49.556;10.956;2023-03-05T10:42:13;4.55;;;2.92;;
20154;SDS011;10238;49.556;10.956;2023-03-05T10:45:13;5.40;;;3.22;;
20154;SDS011;10238;49.556;10.956;2023-03-05T10:48:04;7.25;;;3.25;;
20154;SDS011;10238;49.556;10.956;2023-03-05T10:50:59;6.05;;;3.28;;
20154;SDS011;10238;49.556;10.956;2023-03-05T10:53:52;6.18;;;3.13;;
20154;SDS011;10238;49.556;10.956;2023-03-05T10:56:41;4.68;;;3.13;;
20154;SDS011;10238;49.556;10.956;2023-03-05T10:59:30;5.90;;;3.75;;
20154;SDS011;10238;49.556;10.956;2023-03-05T11:02:20;4.55;;;3.47;;
20154;SDS011;10238;49.556;10.956;2023-03-05T11:05:13;3.95;;;3.55;;
20154;SDS011;10238;49.556;10.956;2023-03-05T11:08:31;3.90;;;2.95;;
20154;SDS011;10238;49.556;10.956;2023-03-05T11:11:21;3.72;;;2.45;;
20154;SDS011;10238;49.556;10.956;2023-03-05T11:14:22;4.18;;;2.30;;
20154;SDS011;10238;49.556;10.956;2023-03-05T11:17:28;2.38;;;2.05;;
20154;SDS011;10238;49.556;10.956;2023-03-05T11:23:24;3.25;;;1.98;;
20154;SDS011;10238;49.556;10.956;2023-03-05T11:26:18;3.38;;;2.30;;
20154;SDS011;10238;49.556;10.956;2023-03-05T11:29:14;3.78;;;2.38;;
20154;SDS011;10238;49.556;10.956;2023-03-05T11:32:15;2.67;;;2.33;;
20154;SDS011;10238;49.556;10.956;2023-03-05T11:35:08;6.90;;;2.78;;
20154;SDS011;10238;49.556;10.956;2023-03-05T11:38:16;3.38;;;2.33;;
20154;SDS011;10238;49.556;10.956;2023-03-05T11:41:06;2.85;;;2.25;;
20154;SDS011;10238;49.556;10.956;2023-03-05T11:43:56;2.30;;;2.10;;
20154;SDS011;10238;49.556;10.956;2023-03-05T11:46:49;2.85;;;2.55;;
20154;SDS011;10238;49.556;10.956;2023-03-05T11:49:40;6.47;;;4.20;;
20154;SDS011;10238;49.556;10.956;2023-03-05T11:52:36;6.13;;;3.90;;
20154;SDS011;10238;49.556;10.956;2023-03-05T11:55:32;6.25;;;3.85;;
20154;SDS011;10238;49.556;10.956;2023-03-05T11:58:26;4.85;;;3.78;;
20154;SDS011;10238;49.556;10.956;2023-03-05T12:01:19;3.97;;;3.33;;
20154;SDS011;10238;49.556;10.956;2023-03-05T12:04:09;4.43;;;2.35;;
20154;SDS011;10238;49.556;10.956;2023-03-05T12:06:57;3.13;;;2.47;;
20154;SDS011;10238;49.556;10.956;2023-03-05T12:09:50;5.38;;;2.42;;
20154;SDS011;10238;49.556;10.956;2023-03-05T12:12:39;3.53;;;2.50;;
20154;SDS011;10238;49.556;10.956;2023-03-05T12:15:37;4.00;;;2.80;;
20154;SDS011;10238;49.556;10.956;2023-03-05T12:18:40;3.35;;;2.60;;
20154;SDS011;10238;49.556;10.956;2023-03-05T12:21:38;4.95;;;3.03;;
20154;SDS011;10238;49.556;10.956;2023-03-05T12:24:31;6.20;;;3.00;;
20154;SDS011;10238;49.556;10.956;2023-03-05T12:27:33;6.90;;;3.20;;
20154;SDS011;10238;49.556;10.956;2023-03-05T12:33:46;3.20;;;2.90;;
20154;SDS011;10238;49.556;10.956;2023-03-05T12:36:35;4.55;;;2.72;;
20154;SDS011;10238;49.556;10.956;2023-03-05T12:39:41;2.83;;;2.40;;
20154;SDS011;10238;49.556;10.956;2023-03-05T12:42:41;4.47;;;2.42;;
20154;SDS011;10238;49.556;10.956;2023-03-05T12:45:37;4.65;;;2.55;;
20154;SDS011;10238;49.556;10.956;2023-03-05T12:48:42;6.20;;;2.80;;
20154;SDS011;10238;49.556;10.956;2023-03-05T12:51:32;3.50;;;2.45;;
20154;SDS011;10238;49.556;10.956;2023-03-05T12:54:30;4.10;;;2.33;;
20154;SDS011;10238;49.556;10.956;2023-03-05T12:57:20;2.10;;;1.90;;
20154;SDS011;10238;49.556;10.956;2023-03-05T13:00:15;2.92;;;2.00;;
20154;SDS011;10238;49.556;10.956;2023-03-05T13:03:08;4.03;;;2.10;;
20154;SDS011;10238;49.556;10.956;2023-03-05T13:06:03;4.55;;;2.40;;
20154;SDS011;10238;49.556;10.956;2023-03-05T13:08:56;2.80;;;2.33;;
20154;SDS011;10238;49.556;10.956;2023-03-05T13:11:46;5.53;;;2.30;;
20154;SDS011;10238;49.556;10.956;2023-03-05T13:14:36;5.28;;;2.80;;
20154;SDS011;10238;49.556;10.956;2023-03-05T13:17:30;3.90;;;2.80;;
20154;SDS011;10238;49.556;10.956;2023-03-05T13:20:25;3.30;;;2.10;;
20154;SDS011;10238;49.556;10.956;2023-03-05T13:23:17;4.50;;;2.28;;
20154;SDS011;10238;49.556;10.956;2023-03-05T13:26:10;2.80;;;2.40;;
20154;SDS011;10238;49.556;10.956;2023-03-05T13:29:08;4.00;;;2.67;;
20154;SDS011;10238;49.556;10.956;2023-03-05T13:31:58;3.40;;;2.08;;
20154;SDS011;10238;49.556;10.956;2023-03-05T13:34:49;4.50;;;2.60;;
20154;SDS011;10238;49.556;10.956;2023-03-05T13:37:39;3.03;;;2.67;;
20154;SDS011;10238;49.556;10.956;2023-03-05T13:40:31;4.63;;;3.05;;
20154;SDS011;10238;49.556;10.956;2023-03-05T13:43:19;4.55;;;2.90;;
20154;SDS011;10238;49.556;10.956;2023-03-05T13:46:07;3.83;;;2.90;;
20154;SDS011;10238;49.556;10.956;2023-03-05T13:48:55;6.07;;;3.22;;
20154;SDS011;10238;49.556;10.956;2023-03-05T13:51:46;5.25;;;3.00;;
20154;SDS011;10238;49.556;10.956;2023-03-05T13:54:34;4.85;;;2.80;;
20154;SDS011;10238;49.556;10.956;2023-03-05T13:57:33;4.72;;;2.83;;
20154;SDS011;10238;49.556;10.956;2023-03-05T14:00:26;3.67;;;2.92;;
20154;SDS011;10238;49.556;10.956;2023-03-05T14:03:20;3.55;;;2.72;;
20154;SDS011;10238;49.556;10.956;2023-03-05T14:06:10;6.15;;;3.08;;
20154;SDS011;10238;49.556;10.956;2023-03-05T14:09:04;2.95;;;2.47;;
20154;SDS011;10238;49.556;10.956;2023-03-05T14:11:55;3.38;;;3.08;;
20154;SDS011;10238;49.556;10.956;2023-03-05T14:14:48;4.20;;;2.85;;
20154;SDS011;10238;49.556;10.956;2023-03-05T14:17:38;4.35;;;3.00;;
20154;SDS011;10238;49.556;10.956;2023-03-05T14:20:28;5.18;;;3.13;;
20154;SDS011;10238;49.556;10.956;2023-03-05T14:23:23;5.35;;;3.30;;
20154;SDS011;10238;49.556;10.956;2023-03-05T14:26:19;5.30;;;3.40;;
20154;SDS011;10238;49.556;10.956;2023-03-05T14:29:14;6.50;;;3.33;;
20154;SDS011;10238;49.556;10.956;2023-03-05T14:32:06;5.97;;;3.88;;
20154;SDS011;10238;49.556;10.956;2023-03-05T14:35:04;4.25;;;3.33;;
20154;SDS011;10238;49.556;10.956;2023-03-05T14:37:53;5.20;;;3.58;;
20154;SDS011;10238;49.556;10.956;2023-03-05T14:40:42;5.18;;;3.47;;
20154;SDS011;10238;49.556;10.956;2023-03-05T14:43:33;5.65;;;3.25;;
20154;SDS011;10238;49.556;10.956;2023-03-05T14:46:21;4.55;;;2.97;;
20154;SDS011;10238;49.556;10.956;2023-03-05T14:49:08;6.43;;;3.90;;
20154;SDS011;10238;49.556;10.956;2023-03-05T14:51:56;4.03;;;3.63;;
20154;SDS011;10238;49.556;10.956;2023-03-05T14:54:44;4.20;;;3.80;;
20154;SDS011;10238;49.556;10.956;2023-03-05T14:57:33;5.18;;;3.25;;
20154;SDS011;10238;49.556;10.956;2023-03-05T15:00:27;5.60;;;3.50;;
20154;SDS011;10238;49.556;10.956;2023-03-05T15:03:16;4.95;;;3.40;;
20154;SDS011;10238;49.556;10.956;2023-03-05T15:06:04;5.65;;;3.10;;
20154;SDS011;10238;49.556;10.956;2023-03-05T15:08:54;6.38;;;3.22;;
20154;SDS011;10238;49.556;10.956;2023-03-05T15:11:42;7.20;;;4.07;;
20154;SDS011;10238;49.556;10.956;2023-03-05T15:14:29;8.63;;;4.45;;
20154;SDS011;10238;49.556;10.956;2023-03-05T15:17:20;8.23;;;4.35;;
20154;SDS011;10238;49.556;10.956;2023-03-05T15:20:13;8.13;;;4.40;;
20154;SDS011;10238;49.556;10.956;2023-03-05T15:25:51;10.45;;;5.55;;
20154;SDS011;10238;49.556;10.956;2023-03-05T15:28:39;7.78;;;4.30;;
20154;SDS011;10238;49.556;10.956;2023-03-05T15:31:28;6.72;;;3.85;;
20154;SDS011;10238;49.556;10.956;2023-03-05T15:34:23;6.07;;;4.18;;
20154;SDS011;10238;49.556;10.956;2023-03-05T15:37:11;6.53;;;3.63;;
20154;SDS011;10238;49.556;10.956;2023-03-05T15:40:00;5.13;;;3.53;;
20154;SDS011;10238;49.556;10.956;2023-03-05T15:42:47;6.63;;;4.07;;
20154;SDS011;10238;49.556;10.956;2023-03-05T15:45:35;6.35;;;4.22;;
20154;SDS011;10238;49.556;10.956;2023-03-05T15:48:23;5.60;;;3.92;;
20154;SDS011;10238;49.556;10.956;2023-03-05T15:51:13;6.93;;;4.20;;
20154;SDS011;10238;49.556;10.956;2023-03-05T15:54:01;5.38;;;3.83;;
20154;SDS011;10238;49.556;10.956;2023-03-05T15:56:49;6.53;;;3.90;;
20154;SDS011;10238;49.556;10.956;2023-03-05T15:59:37;6.18;;;4.25;;
20154;SDS011;10238;49.556;10.956;2023-03-05T16:02:25;6.60;;;3.50;;
20154;SDS011;10238;49.556;10.956;2023-03-05T16:05:13;6.05;;;4.18;;
20154;SDS011;10238;49.556;10.956;2023-03-05T16:08:03;7.50;;;3.97;;
20154;SDS011;10238;49.556;10.956;2023-03-05T16:10:51;8.93;;;4.57;;
20154;SDS011;10238;49.556;10.956;2023-03-05T16:13:39;5.75;;;4.10;;
20154;SDS011;10238;49.556;10.956;2023-03-05T16:16:28;7.43;;;4.07;;
20154;SDS011;10238;49.556;10.956;2023-03-05T16:19:17;7.07;;;4.18;;
20154;SDS011;10238;49.556;10.956;2023-03-05T16:22:05;6.65;;;4.53;;
20154;SDS011;10238;49.556;10.956;2023-03-05T16:24:54;6.65;;;4.43;;
20154;SDS011;10238;49.556;10.956;2023-03-05T16:27:43;4.47;;;4.07;;
20154;SDS011;10238;49.556;10.956;2023-03-05T16:30:31;5.68;;;4.07;;
20154;SDS011;10238;49.556;10.956;2023-03-05T16:33:18;5.40;;;3.92;;
20154;SDS011;10238;49.556;10.956;2023-03-05T16:36:16;10.40;;;4.72;;
20154;SDS011;10238;49.556;10.956;2023-03-05T16:39:06;6.93;;;5.13;;
20154;SDS011;10238;49.556;10.956;2023-03-05T16:41:56;6.28;;;3.28;;
20154;SDS011;10238;49.556;10.956;2023-03-05T16:44:43;6.57;;;3.75;;
20154;SDS011;10238;49.556;10.956;2023-03-05T16:47:32;5.72;;;3.30;;
20154;SDS011;10238;49.556;10.956;2023-03-05T16:50:20;7.95;;;3.50;;